sensor_id;sensor_type;location;lat;lon;timestamp;P1;durP1;ratioP1;P2;durP2;ratioP2
26622;SDS011;14254;50.968;5.366;2023-05-10T00:01:37;67.93;;;26.52;;
26622;SDS011;14254;50.968;5.366;2023-05-10T00:04:03;62.47;;;25.80;;
26622;SDS011;14254;50.968;5.366;2023-05-10T00:06:29;67.07;;;26.80;;
26622;SDS011;14254;50.968;5.366;2023-05-10T00:08:55;62.45;;;25.42;;
26622;SDS011;14254;50.968;5.366;2023-05-10T00:11:21;61.25;;;24.50;;
26622;SDS011;14254;50.968;5.366;2023-05-10T00:13:46;65.40;;;25.13;;
26622;SDS011;14254;50.968;5.366;2023-05-10T00:16:12;60.75;;;23.30;;
26622;SDS011;14254;50.968;5.366;2023-05-10T00:18:38;62.15;;;25.80;;
26622;SDS011;14254;50.968;5.366;2023-05-10T00:21:05;64.10;;;23.85;;
26622;SDS011;14254;50.968;5.366;2023-05-10T00:23:30;58.15;;;24.50;;
26622;SDS011;14254;50.968;5.366;2023-05-10T00:25:56;63.63;;;25.38;;
26622;SDS011;14254;50.968;5.366;2023-05-10T00:28:22;55.47;;;22.92;;
26622;SDS011;14254;50.968;5.366;2023-05-10T00:30:48;56.20;;;24.27;;
26622;SDS011;14254;50.968;5.366;2023-05-10T00:33:14;54.47;;;24.27;;
26622;SDS011;14254;50.968;5.366;2023-05-10T00:35:39;52.85;;;22.38;;
26622;SDS011;14254;50.968;5.366;2023-05-10T00:38:05;50.20;;;21.88;;
26622;SDS011;14254;50.968;5.366;2023-05-10T00:40:31;54.17;;;22.80;;
26622;SDS011;14254;50.968;5.366;2023-05-10T00:42:57;56.15;;;23.05;;
26622;SDS011;14254;50.968;5.366;2023-05-10T00:45:25;45.78;;;21.10;;
26622;SDS011;14254;50.968;5.366;2023-05-10T00:47:52;48.58;;;22.42;;
26622;SDS011;14254;50.968;5.366;2023-05-10T00:50:20;53.33;;;24.23;;
26622;SDS011;14254;50.968;5.366;2023-05-10T00:52:48;48.30;;;21.65;;
26622;SDS011;14254;50.968;5.366;2023-05-10T00:55:15;50.83;;;22.85;;
26622;SDS011;14254;50.968;5.366;2023-05-10T00:57:41;53.30;;;23.67;;
26622;SDS011;14254;50.968;5.366;2023-05-10T01:00:08;50.78;;;23.27;;
26622;SDS011;14254;50.968;5.366;2023-05-10T01:02:34;51.65;;;22.55;;
26622;SDS011;14254;50.968;5.366;2023-05-10T01:05:01;48.33;;;23.17;;
26622;SDS011;14254;50.968;5.366;2023-05-10T01:07:28;55.53;;;24.33;;
26622;SDS011;14254;50.968;5.366;2023-05-10T01:09:54;49.55;;;23.98;;
26622;SDS011;14254;50.968;5.366;2023-05-10T01:12:21;52.13;;;24.23;;
26622;SDS011;14254;50.968;5.366;2023-05-10T01:14:46;54.72;;;24.50;;
26622;SDS011;14254;50.968;5.366;2023-05-10T01:17:13;57.15;;;24.70;;
26622;SDS011;14254;50.968;5.366;2023-05-10T01:19:39;53.28;;;25.10;;
26622;SDS011;14254;50.968;5.366;2023-05-10T01:36:32;51.20;;;23.42;;
26622;SDS011;14254;50.968;5.366;2023-05-10T01:44:06;51.40;;;23.95;;
26622;SDS011;14254;50.968;5.366;2023-05-10T01:46:43;57.25;;;23.45;;
26622;SDS011;14254;50.968;5.366;2023-05-10T01:49:26;52.78;;;22.85;;
26622;SDS011;14254;50.968;5.366;2023-05-10T01:51:59;60.88;;;24.15;;
26622;SDS011;14254;50.968;5.366;2023-05-10T01:54:31;57.15;;;23.60;;
26622;SDS011;14254;50.968;5.366;2023-05-10T01:57:00;66.35;;;25.08;;
26622;SDS011;14254;50.968;5.366;2023-05-10T01:59:29;57.38;;;23.95;;
26622;SDS011;14254;50.968;5.366;2023-05-10T02:02:01;57.80;;;23.52;;
26622;SDS011;14254;50.968;5.366;2023-05-10T02:04:28;50.47;;;21.98;;
26622;SDS011;14254;50.968;5.366;2023-05-10T02:06:55;55.67;;;22.98;;
26622;SDS011;14254;50.968;5.366;2023-05-10T02:09:22;66.70;;;24.67;;
26622;SDS011;14254;50.968;5.366;2023-05-10T02:11:50;64.70;;;24.38;;
26622;SDS011;14254;50.968;5.366;2023-05-10T02:14:16;47.28;;;23.20;;
26622;SDS011;14254;50.968;5.366;2023-05-10T02:16:45;68.45;;;24.92;;
26622;SDS011;14254;50.968;5.366;2023-05-10T02:19:12;59.20;;;24.67;;
26622;SDS011;14254;50.968;5.366;2023-05-10T02:21:40;62.63;;;25.15;;
26622;SDS011;14254;50.968;5.366;2023-05-10T02:24:07;57.88;;;23.40;;
26622;SDS011;14254;50.968;5.366;2023-05-10T02:26:35;74.18;;;24.90;;
26622;SDS011;14254;50.968;5.366;2023-05-10T02:29:03;63.70;;;25.02;;
26622;SDS011;14254;50.968;5.366;2023-05-10T02:31:33;61.67;;;25.17;;
26622;SDS011;14254;50.968;5.366;2023-05-10T02:34:00;58.60;;;24.02;;
26622;SDS011;14254;50.968;5.366;2023-05-10T02:36:27;64.90;;;25.50;;
26622;SDS011;14254;50.968;5.366;2023-05-10T02:38:54;75.53;;;27.52;;
26622;SDS011;14254;50.968;5.366;2023-05-10T02:41:21;71.50;;;25.52;;
26622;SDS011;14254;50.968;5.366;2023-05-10T02:43:49;66.25;;;25.67;;
26622;SDS011;14254;50.968;5.366;2023-05-10T02:46:17;71.93;;;25.70;;
26622;SDS011;14254;50.968;5.366;2023-05-10T02:48:43;57.47;;;25.25;;
26622;SDS011;14254;50.968;5.366;2023-05-10T02:51:09;69.70;;;25.25;;
26622;SDS011;14254;50.968;5.366;2023-05-10T02:53:40;71.10;;;26.00;;
26622;SDS011;14254;50.968;5.366;2023-05-10T02:56:13;76.22;;;27.80;;
26622;SDS011;14254;50.968;5.366;2023-05-10T02:58:44;65.93;;;26.90;;
26622;SDS011;14254;50.968;5.366;2023-05-10T03:01:11;63.38;;;25.98;;
26622;SDS011;14254;50.968;5.366;2023-05-10T03:03:37;63.20;;;25.58;;
26622;SDS011;14254;50.968;5.366;2023-05-10T03:06:02;66.15;;;27.08;;
26622;SDS011;14254;50.968;5.366;2023-05-10T03:08:29;59.15;;;24.33;;
26622;SDS011;14254;50.968;5.366;2023-05-10T03:11:05;67.70;;;24.88;;
26622;SDS011;14254;50.968;5.366;2023-05-10T03:16:41;61.15;;;24.55;;
26622;SDS011;14254;50.968;5.366;2023-05-10T03:21:58;55.83;;;24.23;;
26622;SDS011;14254;50.968;5.366;2023-05-10T03:24:27;65.93;;;26.08;;
26622;SDS011;14254;50.968;5.366;2023-05-10T03:26:55;65.65;;;25.20;;
26622;SDS011;14254;50.968;5.366;2023-05-10T03:29:24;65.22;;;26.88;;
26622;SDS011;14254;50.968;5.366;2023-05-10T03:31:52;68.88;;;26.73;;
26622;SDS011;14254;50.968;5.366;2023-05-10T03:34:22;57.20;;;24.10;;
26622;SDS011;14254;50.968;5.366;2023-05-10T03:36:51;65.85;;;25.30;;
26622;SDS011;14254;50.968;5.366;2023-05-10T03:39:17;67.68;;;25.20;;
26622;SDS011;14254;50.968;5.366;2023-05-10T03:41:43;69.18;;;25.85;;
26622;SDS011;14254;50.968;5.366;2023-05-10T03:44:09;63.97;;;25.77;;
26622;SDS011;14254;50.968;5.366;2023-05-10T03:46:34;68.57;;;25.85;;
26622;SDS011;14254;50.968;5.366;2023-05-10T03:49:00;63.25;;;25.55;;
26622;SDS011;14254;50.968;5.366;2023-05-10T03:51:25;65.70;;;26.23;;
26622;SDS011;14254;50.968;5.366;2023-05-10T03:53:53;71.82;;;25.90;;
26622;SDS011;14254;50.968;5.366;2023-05-10T03:56:20;59.30;;;24.20;;
26622;SDS011;14254;50.968;5.366;2023-05-10T03:58:46;62.95;;;26.05;;
26622;SDS011;14254;50.968;5.366;2023-05-10T04:01:11;74.38;;;26.60;;
26622;SDS011;14254;50.968;5.366;2023-05-10T04:03:37;71.13;;;25.15;;
26622;SDS011;14254;50.968;5.366;2023-05-10T04:06:03;80.20;;;25.80;;
26622;SDS011;14254;50.968;5.366;2023-05-10T04:08:30;63.22;;;25.27;;
26622;SDS011;14254;50.968;5.366;2023-05-10T04:11:09;61.13;;;23.65;;
26622;SDS011;14254;50.968;5.366;2023-05-10T04:13:36;68.68;;;26.50;;
26622;SDS011;14254;50.968;5.366;2023-05-10T04:16:03;68.20;;;27.85;;
26622;SDS011;14254;50.968;5.366;2023-05-10T04:18:29;70.60;;;27.27;;
26622;SDS011;14254;50.968;5.366;2023-05-10T04:20:55;67.95;;;26.85;;
26622;SDS011;14254;50.968;5.366;2023-05-10T04:23:20;71.68;;;27.38;;
26622;SDS011;14254;50.968;5.366;2023-05-10T04:25:46;65.70;;;25.85;;
26622;SDS011;14254;50.968;5.366;2023-05-10T04:28:12;68.78;;;26.13;;
26622;SDS011;14254;50.968;5.366;2023-05-10T04:30:38;66.25;;;25.35;;
26622;SDS011;14254;50.968;5.366;2023-05-10T04:33:03;68.40;;;28.25;;
26622;SDS011;14254;50.968;5.366;2023-05-10T04:35:29;78.13;;;26.67;;
26622;SDS011;14254;50.968;5.366;2023-05-10T04:37:55;69.93;;;27.40;;
26622;SDS011;14254;50.968;5.366;2023-05-10T04:40:21;70.13;;;26.13;;
26622;SDS011;14254;50.968;5.366;2023-05-10T04:42:46;71.60;;;27.30;;
26622;SDS011;14254;50.968;5.366;2023-05-10T04:45:12;63.90;;;26.10;;
26622;SDS011;14254;50.968;5.366;2023-05-10T04:47:39;68.60;;;27.20;;
26622;SDS011;14254;50.968;5.366;2023-05-10T04:50:05;59.38;;;24.92;;
26622;SDS011;14254;50.968;5.366;2023-05-10T04:52:32;62.97;;;25.00;;
26622;SDS011;14254;50.968;5.366;2023-05-10T04:54:58;67.78;;;26.08;;
26622;SDS011;14254;50.968;5.366;2023-05-10T04:57:23;75.95;;;27.73;;
26622;SDS011;14254;50.968;5.366;2023-05-10T04:59:49;82.07;;;29.17;;
26622;SDS011;14254;50.968;5.366;2023-05-10T05:02:15;90.32;;;31.77;;
26622;SDS011;14254;50.968;5.366;2023-05-10T05:04:41;92.18;;;29.73;;
26622;SDS011;14254;50.968;5.366;2023-05-10T05:07:07;90.97;;;31.45;;
26622;SDS011;14254;50.968;5.366;2023-05-10T05:09:33;89.30;;;32.63;;
26622;SDS011;14254;50.968;5.366;2023-05-10T05:11:58;85.10;;;32.03;;
26622;SDS011;14254;50.968;5.366;2023-05-10T05:14:24;124.95;;;35.70;;
26622;SDS011;14254;50.968;5.366;2023-05-10T05:16:53;96.80;;;31.02;;
26622;SDS011;14254;50.968;5.366;2023-05-10T05:19:19;95.80;;;34.33;;
26622;SDS011;14254;50.968;5.366;2023-05-10T05:21:44;101.10;;;32.88;;
26622;SDS011;14254;50.968;5.366;2023-05-10T05:24:10;105.63;;;33.55;;
26622;SDS011;14254;50.968;5.366;2023-05-10T05:26:37;104.28;;;31.52;;
26622;SDS011;14254;50.968;5.366;2023-05-10T05:29:03;118.30;;;36.53;;
26622;SDS011;14254;50.968;5.366;2023-05-10T05:31:29;152.73;;;43.20;;
26622;SDS011;14254;50.968;5.366;2023-05-10T05:33:55;149.77;;;42.97;;
26622;SDS011;14254;50.968;5.366;2023-05-10T05:36:21;144.15;;;41.05;;
26622;SDS011;14254;50.968;5.366;2023-05-10T05:38:46;149.02;;;42.65;;
26622;SDS011;14254;50.968;5.366;2023-05-10T05:41:12;157.23;;;43.70;;
26622;SDS011;14254;50.968;5.366;2023-05-10T05:43:38;160.18;;;43.78;;
26622;SDS011;14254;50.968;5.366;2023-05-10T05:46:04;157.45;;;44.90;;
26622;SDS011;14254;50.968;5.366;2023-05-10T05:48:30;165.75;;;43.50;;
26622;SDS011;14254;50.968;5.366;2023-05-10T05:50:56;174.25;;;45.88;;
26622;SDS011;14254;50.968;5.366;2023-05-10T05:53:22;167.70;;;44.25;;
26622;SDS011;14254;50.968;5.366;2023-05-10T05:55:54;166.02;;;44.67;;
26622;SDS011;14254;50.968;5.366;2023-05-10T05:58:21;163.30;;;45.33;;
26622;SDS011;14254;50.968;5.366;2023-05-10T06:00:47;163.52;;;42.80;;
26622;SDS011;14254;50.968;5.366;2023-05-10T06:03:13;164.18;;;45.75;;
26622;SDS011;14254;50.968;5.366;2023-05-10T06:05:39;156.05;;;45.20;;
26622;SDS011;14254;50.968;5.366;2023-05-10T06:08:04;158.77;;;44.38;;
26622;SDS011;14254;50.968;5.366;2023-05-10T06:10:30;155.77;;;43.55;;
26622;SDS011;14254;50.968;5.366;2023-05-10T06:12:56;154.20;;;43.55;;
26622;SDS011;14254;50.968;5.366;2023-05-10T06:15:22;158.38;;;43.40;;
26622;SDS011;14254;50.968;5.366;2023-05-10T06:17:48;147.68;;;43.17;;
26622;SDS011;14254;50.968;5.366;2023-05-10T06:20:14;142.00;;;39.33;;
26622;SDS011;14254;50.968;5.366;2023-05-10T06:22:40;140.68;;;39.00;;
26622;SDS011;14254;50.968;5.366;2023-05-10T06:25:06;136.25;;;40.25;;
26622;SDS011;14254;50.968;5.366;2023-05-10T06:27:33;123.07;;;36.47;;
26622;SDS011;14254;50.968;5.366;2023-05-10T06:29:59;132.82;;;40.65;;
26622;SDS011;14254;50.968;5.366;2023-05-10T06:32:25;131.98;;;39.88;;
26622;SDS011;14254;50.968;5.366;2023-05-10T06:34:50;134.23;;;40.83;;
26622;SDS011;14254;50.968;5.366;2023-05-10T06:37:17;119.35;;;39.58;;
26622;SDS011;14254;50.968;5.366;2023-05-10T06:39:42;124.10;;;37.78;;
26622;SDS011;14254;50.968;5.366;2023-05-10T06:42:08;131.55;;;39.92;;
26622;SDS011;14254;50.968;5.366;2023-05-10T06:44:34;137.45;;;41.17;;
26622;SDS011;14254;50.968;5.366;2023-05-10T06:46:59;133.60;;;40.53;;
26622;SDS011;14254;50.968;5.366;2023-05-10T06:49:25;139.30;;;40.40;;
26622;SDS011;14254;50.968;5.366;2023-05-10T06:51:51;139.73;;;42.58;;
26622;SDS011;14254;50.968;5.366;2023-05-10T06:54:17;137.02;;;41.75;;
26622;SDS011;14254;50.968;5.366;2023-05-10T06:56:42;143.90;;;42.22;;
26622;SDS011;14254;50.968;5.366;2023-05-10T06:59:08;135.00;;;39.72;;
26622;SDS011;14254;50.968;5.366;2023-05-10T07:01:34;125.72;;;38.55;;
26622;SDS011;14254;50.968;5.366;2023-05-10T07:04:00;136.52;;;39.45;;
26622;SDS011;14254;50.968;5.366;2023-05-10T07:06:25;134.23;;;39.40;;
26622;SDS011;14254;50.968;5.366;2023-05-10T07:08:52;131.77;;;38.38;;
26622;SDS011;14254;50.968;5.366;2023-05-10T07:11:18;144.15;;;39.88;;
26622;SDS011;14254;50.968;5.366;2023-05-10T07:13:43;129.60;;;38.45;;
26622;SDS011;14254;50.968;5.366;2023-05-10T07:16:11;140.32;;;39.50;;
26622;SDS011;14254;50.968;5.366;2023-05-10T07:18:36;135.63;;;38.97;;
26622;SDS011;14254;50.968;5.366;2023-05-10T07:21:02;131.35;;;37.35;;
26622;SDS011;14254;50.968;5.366;2023-05-10T07:23:28;137.65;;;40.50;;
26622;SDS011;14254;50.968;5.366;2023-05-10T07:25:55;140.25;;;39.83;;
26622;SDS011;14254;50.968;5.366;2023-05-10T07:28:22;142.93;;;39.67;;
26622;SDS011;14254;50.968;5.366;2023-05-10T07:30:48;127.57;;;40.33;;
26622;SDS011;14254;50.968;5.366;2023-05-10T07:33:14;133.70;;;38.33;;
26622;SDS011;14254;50.968;5.366;2023-05-10T07:35:40;150.50;;;41.55;;
26622;SDS011;14254;50.968;5.366;2023-05-10T07:38:06;124.35;;;39.67;;
26622;SDS011;14254;50.968;5.366;2023-05-10T07:40:32;133.32;;;41.03;;
26622;SDS011;14254;50.968;5.366;2023-05-10T07:42:58;131.63;;;40.28;;
26622;SDS011;14254;50.968;5.366;2023-05-10T07:45:24;135.38;;;40.30;;
26622;SDS011;14254;50.968;5.366;2023-05-10T07:47:50;134.80;;;37.35;;
26622;SDS011;14254;50.968;5.366;2023-05-10T07:50:16;124.32;;;38.90;;
26622;SDS011;14254;50.968;5.366;2023-05-10T07:52:42;125.72;;;37.95;;
26622;SDS011;14254;50.968;5.366;2023-05-10T07:55:07;118.53;;;37.58;;
26622;SDS011;14254;50.968;5.366;2023-05-10T07:57:34;122.75;;;40.95;;
26622;SDS011;14254;50.968;5.366;2023-05-10T08:00:00;125.53;;;39.38;;
26622;SDS011;14254;50.968;5.366;2023-05-10T08:02:26;116.38;;;39.13;;
26622;SDS011;14254;50.968;5.366;2023-05-10T08:04:51;105.78;;;35.25;;
26622;SDS011;14254;50.968;5.366;2023-05-10T08:07:17;107.60;;;36.25;;
26622;SDS011;14254;50.968;5.366;2023-05-10T08:09:43;100.28;;;34.88;;
26622;SDS011;14254;50.968;5.366;2023-05-10T08:12:09;93.40;;;34.22;;
26622;SDS011;14254;50.968;5.366;2023-05-10T08:14:34;91.10;;;32.90;;
26622;SDS011;14254;50.968;5.366;2023-05-10T08:17:03;87.90;;;32.97;;
26622;SDS011;14254;50.968;5.366;2023-05-10T08:19:29;91.68;;;33.40;;
26622;SDS011;14254;50.968;5.366;2023-05-10T08:21:55;90.10;;;33.80;;
26622;SDS011;14254;50.968;5.366;2023-05-10T08:24:21;76.97;;;32.10;;
26622;SDS011;14254;50.968;5.366;2023-05-10T08:26:47;71.63;;;31.92;;
26622;SDS011;14254;50.968;5.366;2023-05-10T08:29:13;73.68;;;30.90;;
26622;SDS011;14254;50.968;5.366;2023-05-10T08:31:39;53.75;;;24.80;;
26622;SDS011;14254;50.968;5.366;2023-05-10T08:34:04;35.67;;;16.85;;
26622;SDS011;14254;50.968;5.366;2023-05-10T08:36:30;16.58;;;9.45;;
26622;SDS011;14254;50.968;5.366;2023-05-10T08:38:57;11.52;;;7.53;;
26622;SDS011;14254;50.968;5.366;2023-05-10T08:41:23;12.73;;;6.93;;
26622;SDS011;14254;50.968;5.366;2023-05-10T08:43:51;18.73;;;7.78;;
26622;SDS011;14254;50.968;5.366;2023-05-10T08:46:18;12.75;;;6.55;;
26622;SDS011;14254;50.968;5.366;2023-05-10T08:48:46;14.13;;;7.30;;
26622;SDS011;14254;50.968;5.366;2023-05-10T08:51:14;10.80;;;6.43;;
26622;SDS011;14254;50.968;5.366;2023-05-10T08:53:42;12.10;;;7.35;;
26622;SDS011;14254;50.968;5.366;2023-05-10T08:56:09;13.00;;;7.35;;
26622;SDS011;14254;50.968;5.366;2023-05-10T08:58:35;20.33;;;8.52;;
26622;SDS011;14254;50.968;5.366;2023-05-10T09:01:02;19.52;;;7.15;;
26622;SDS011;14254;50.968;5.366;2023-05-10T09:03:29;12.75;;;8.20;;
26622;SDS011;14254;50.968;5.366;2023-05-10T09:05:56;15.75;;;8.75;;
26622;SDS011;14254;50.968;5.366;2023-05-10T09:08:22;15.75;;;7.85;;
26622;SDS011;14254;50.968;5.366;2023-05-10T09:10:52;14.43;;;7.93;;
26622;SDS011;14254;50.968;5.366;2023-05-10T09:13:21;13.27;;;8.45;;
26622;SDS011;14254;50.968;5.366;2023-05-10T09:15:48;16.02;;;9.48;;
26622;SDS011;14254;50.968;5.366;2023-05-10T09:18:14;15.80;;;9.20;;
26622;SDS011;14254;50.968;5.366;2023-05-10T09:20:40;18.35;;;10.13;;
26622;SDS011;14254;50.968;5.366;2023-05-10T09:23:06;14.27;;;7.97;;
26622;SDS011;14254;50.968;5.366;2023-05-10T09:25:32;15.70;;;8.77;;
26622;SDS011;14254;50.968;5.366;2023-05-10T09:28:02;15.98;;;9.00;;
26622;SDS011;14254;50.968;5.366;2023-05-10T09:30:32;15.38;;;8.90;;
26622;SDS011;14254;50.968;5.366;2023-05-10T09:32:58;13.35;;;8.25;;
26622;SDS011;14254;50.968;5.366;2023-05-10T09:35:25;16.10;;;9.32;;
26622;SDS011;14254;50.968;5.366;2023-05-10T09:37:53;15.93;;;9.85;;
26622;SDS011;14254;50.968;5.366;2023-05-10T09:40:21;16.48;;;9.77;;
26622;SDS011;14254;50.968;5.366;2023-05-10T09:43:01;19.83;;;10.10;;
26622;SDS011;14254;50.968;5.366;2023-05-10T09:45:36;18.77;;;9.70;;
26622;SDS011;14254;50.968;5.366;2023-05-10T09:48:02;19.23;;;9.25;;
26622;SDS011;14254;50.968;5.366;2023-05-10T09:50:29;24.30;;;11.35;;
26622;SDS011;14254;50.968;5.366;2023-05-10T09:52:56;21.02;;;11.63;;
26622;SDS011;14254;50.968;5.366;2023-05-10T09:55:39;21.50;;;11.98;;
26622;SDS011;14254;50.968;5.366;2023-05-10T09:58:11;25.30;;;12.40;;
26622;SDS011;14254;50.968;5.366;2023-05-10T10:00:39;21.00;;;12.82;;
26622;SDS011;14254;50.968;5.366;2023-05-10T10:03:06;22.10;;;12.43;;
26622;SDS011;14254;50.968;5.366;2023-05-10T10:05:41;24.38;;;13.60;;
26622;SDS011;14254;50.968;5.366;2023-05-10T10:08:08;24.88;;;12.95;;
26622;SDS011;14254;50.968;5.366;2023-05-10T10:10:34;22.20;;;12.40;;
26622;SDS011;14254;50.968;5.366;2023-05-10T10:13:00;26.60;;;13.13;;
26622;SDS011;14254;50.968;5.366;2023-05-10T10:15:26;27.10;;;13.98;;
26622;SDS011;14254;50.968;5.366;2023-05-10T10:17:52;28.05;;;14.98;;
26622;SDS011;14254;50.968;5.366;2023-05-10T10:20:19;29.63;;;16.35;;
26622;SDS011;14254;50.968;5.366;2023-05-10T10:22:46;24.15;;;13.65;;
26622;SDS011;14254;50.968;5.366;2023-05-10T10:25:13;29.58;;;15.68;;
26622;SDS011;14254;50.968;5.366;2023-05-10T10:35:58;28.98;;;15.25;;
26622;SDS011;14254;50.968;5.366;2023-05-10T10:38:25;30.52;;;16.45;;
26622;SDS011;14254;50.968;5.366;2023-05-10T10:41:09;29.88;;;16.00;;
26622;SDS011;14254;50.968;5.366;2023-05-10T10:43:36;31.70;;;16.52;;
26622;SDS011;14254;50.968;5.366;2023-05-10T10:49:07;27.35;;;16.08;;
26622;SDS011;14254;50.968;5.366;2023-05-10T10:51:37;33.85;;;16.30;;
26622;SDS011;14254;50.968;5.366;2023-05-10T10:54:10;26.30;;;14.25;;
26622;SDS011;14254;50.968;5.366;2023-05-10T10:56:36;26.60;;;15.57;;
26622;SDS011;14254;50.968;5.366;2023-05-10T10:59:02;31.15;;;16.42;;
26622;SDS011;14254;50.968;5.366;2023-05-10T11:01:32;27.77;;;16.40;;
26622;SDS011;14254;50.968;5.366;2023-05-10T11:06:32;22.00;;;13.27;;
26622;SDS011;14254;50.968;5.366;2023-05-10T11:08:59;22.65;;;13.25;;
26622;SDS011;14254;50.968;5.366;2023-05-10T11:11:35;23.52;;;13.38;;
26622;SDS011;14254;50.968;5.366;2023-05-10T11:14:04;21.27;;;12.82;;
26622;SDS011;14254;50.968;5.366;2023-05-10T11:16:42;19.88;;;12.25;;
26622;SDS011;14254;50.968;5.366;2023-05-10T11:19:12;23.17;;;14.05;;
26622;SDS011;14254;50.968;5.366;2023-05-10T11:21:48;19.88;;;13.00;;
26622;SDS011;14254;50.968;5.366;2023-05-10T11:24:40;16.30;;;11.68;;
26622;SDS011;14254;50.968;5.366;2023-05-10T11:27:23;18.88;;;12.30;;
26622;SDS011;14254;50.968;5.366;2023-05-10T11:29:52;18.85;;;12.30;;
26622;SDS011;14254;50.968;5.366;2023-05-10T11:32:17;18.92;;;11.68;;
26622;SDS011;14254;50.968;5.366;2023-05-10T11:34:46;19.63;;;13.23;;
26622;SDS011;14254;50.968;5.366;2023-05-10T11:37:13;16.33;;;11.48;;
26622;SDS011;14254;50.968;5.366;2023-05-10T11:39:38;17.60;;;11.63;;
26622;SDS011;14254;50.968;5.366;2023-05-10T11:42:12;18.27;;;11.45;;
26622;SDS011;14254;50.968;5.366;2023-05-10T11:44:37;16.48;;;10.18;;
26622;SDS011;14254;50.968;5.366;2023-05-10T11:47:03;18.00;;;10.95;;
26622;SDS011;14254;50.968;5.366;2023-05-10T11:49:30;18.55;;;11.25;;
26622;SDS011;14254;50.968;5.366;2023-05-10T11:52:06;18.20;;;10.60;;
26622;SDS011;14254;50.968;5.366;2023-05-10T11:54:32;16.40;;;10.63;;
26622;SDS011;14254;50.968;5.366;2023-05-10T11:57:00;16.02;;;9.95;;
26622;SDS011;14254;50.968;5.366;2023-05-10T11:59:25;17.08;;;10.80;;
26622;SDS011;14254;50.968;5.366;2023-05-10T12:01:51;18.30;;;10.52;;
26622;SDS011;14254;50.968;5.366;2023-05-10T12:04:17;13.07;;;8.98;;
26622;SDS011;14254;50.968;5.366;2023-05-10T12:06:43;14.60;;;9.38;;
26622;SDS011;14254;50.968;5.366;2023-05-10T12:09:09;11.50;;;8.10;;
26622;SDS011;14254;50.968;5.366;2023-05-10T12:11:39;13.10;;;8.50;;
26622;SDS011;14254;50.968;5.366;2023-05-10T12:14:06;13.10;;;8.50;;
26622;SDS011;14254;50.968;5.366;2023-05-10T12:16:33;12.77;;;8.45;;
26622;SDS011;14254;50.968;5.366;2023-05-10T12:18:59;10.82;;;8.30;;
26622;SDS011;14254;50.968;5.366;2023-05-10T12:21:25;12.55;;;8.27;;
26622;SDS011;14254;50.968;5.366;2023-05-10T12:23:54;10.82;;;7.72;;
26622;SDS011;14254;50.968;5.366;2023-05-10T12:26:24;9.65;;;8.07;;
26622;SDS011;14254;50.968;5.366;2023-05-10T12:28:51;16.77;;;8.50;;
26622;SDS011;14254;50.968;5.366;2023-05-10T12:31:18;10.45;;;6.97;;
26622;SDS011;14254;50.968;5.366;2023-05-10T12:33:44;7.82;;;6.10;;
26622;SDS011;14254;50.968;5.366;2023-05-10T12:36:10;7.70;;;6.30;;
26622;SDS011;14254;50.968;5.366;2023-05-10T12:38:38;8.38;;;5.60;;
26622;SDS011;14254;50.968;5.366;2023-05-10T12:41:14;6.85;;;5.95;;
26622;SDS011;14254;50.968;5.366;2023-05-10T12:43:41;6.43;;;4.45;;
26622;SDS011;14254;50.968;5.366;2023-05-10T12:46:11;6.97;;;5.10;;
26622;SDS011;14254;50.968;5.366;2023-05-10T12:48:38;7.23;;;5.40;;
26622;SDS011;14254;50.968;5.366;2023-05-10T12:51:05;8.80;;;5.30;;
26622;SDS011;14254;50.968;5.366;2023-05-10T12:53:37;10.63;;;5.82;;
26622;SDS011;14254;50.968;5.366;2023-05-10T12:56:03;9.68;;;6.30;;
26622;SDS011;14254;50.968;5.366;2023-05-10T12:58:29;12.38;;;6.90;;
26622;SDS011;14254;50.968;5.366;2023-05-10T13:00:55;9.85;;;7.13;;
26622;SDS011;14254;50.968;5.366;2023-05-10T13:03:21;7.72;;;6.20;;
26622;SDS011;14254;50.968;5.366;2023-05-10T13:05:47;10.15;;;7.35;;
26622;SDS011;14254;50.968;5.366;2023-05-10T13:08:13;9.73;;;7.68;;
26622;SDS011;14254;50.968;5.366;2023-05-10T13:10:39;10.68;;;6.95;;
26622;SDS011;14254;50.968;5.366;2023-05-10T13:13:05;8.18;;;6.70;;
26622;SDS011;14254;50.968;5.366;2023-05-10T13:15:31;10.20;;;6.07;;
26622;SDS011;14254;50.968;5.366;2023-05-10T13:17:57;10.00;;;6.45;;
26622;SDS011;14254;50.968;5.366;2023-05-10T13:20:22;7.05;;;4.38;;
26622;SDS011;14254;50.968;5.366;2023-05-10T13:22:48;4.18;;;3.67;;
26622;SDS011;14254;50.968;5.366;2023-05-10T13:25:14;5.88;;;4.10;;
26622;SDS011;14254;50.968;5.366;2023-05-10T13:27:40;3.75;;;3.45;;
26622;SDS011;14254;50.968;5.366;2023-05-10T13:30:06;4.47;;;4.05;;
26622;SDS011;14254;50.968;5.366;2023-05-10T13:32:33;5.78;;;4.00;;
26622;SDS011;14254;50.968;5.366;2023-05-10T13:34:59;3.70;;;3.20;;
26622;SDS011;14254;50.968;5.366;2023-05-10T13:37:25;3.35;;;2.97;;
26622;SDS011;14254;50.968;5.366;2023-05-10T13:39:51;2.78;;;2.47;;
26622;SDS011;14254;50.968;5.366;2023-05-10T13:42:17;2.92;;;2.33;;
26622;SDS011;14254;50.968;5.366;2023-05-10T13:44:43;3.38;;;3.08;;
26622;SDS011;14254;50.968;5.366;2023-05-10T13:47:08;3.03;;;2.80;;
26622;SDS011;14254;50.968;5.366;2023-05-10T13:49:35;3.22;;;2.92;;
26622;SDS011;14254;50.968;5.366;2023-05-10T13:52:00;4.18;;;3.53;;
26622;SDS011;14254;50.968;5.366;2023-05-10T13:54:31;3.78;;;3.20;;
26622;SDS011;14254;50.968;5.366;2023-05-10T13:57:00;3.50;;;3.00;;
26622;SDS011;14254;50.968;5.366;2023-05-10T13:59:26;4.13;;;3.38;;
26622;SDS011;14254;50.968;5.366;2023-05-10T14:01:52;6.22;;;3.00;;
26622;SDS011;14254;50.968;5.366;2023-05-10T14:04:18;3.70;;;2.80;;
26622;SDS011;14254;50.968;5.366;2023-05-10T14:06:43;2.67;;;2.28;;
26622;SDS011;14254;50.968;5.366;2023-05-10T14:09:09;2.17;;;2.08;;
26622;SDS011;14254;50.968;5.366;2023-05-10T14:11:35;2.50;;;2.30;;
26622;SDS011;14254;50.968;5.366;2023-05-10T14:14:00;2.08;;;1.90;;
26622;SDS011;14254;50.968;5.366;2023-05-10T14:16:26;4.40;;;2.17;;
26622;SDS011;14254;50.968;5.366;2023-05-10T14:18:52;4.55;;;2.35;;
26622;SDS011;14254;50.968;5.366;2023-05-10T14:21:18;2.67;;;2.22;;
26622;SDS011;14254;50.968;5.366;2023-05-10T14:23:43;2.65;;;2.00;;
26622;SDS011;14254;50.968;5.366;2023-05-10T14:26:09;2.88;;;2.08;;
26622;SDS011;14254;50.968;5.366;2023-05-10T14:28:35;2.45;;;2.25;;
26622;SDS011;14254;50.968;5.366;2023-05-10T14:31:00;3.30;;;3.00;;
26622;SDS011;14254;50.968;5.366;2023-05-10T14:33:26;3.38;;;3.08;;
26622;SDS011;14254;50.968;5.366;2023-05-10T14:35:53;4.07;;;2.92;;
26622;SDS011;14254;50.968;5.366;2023-05-10T14:38:19;4.00;;;3.38;;
26622;SDS011;14254;50.968;5.366;2023-05-10T14:40:45;3.97;;;3.58;;
26622;SDS011;14254;50.968;5.366;2023-05-10T14:43:11;6.25;;;4.20;;
26622;SDS011;14254;50.968;5.366;2023-05-10T14:45:36;4.50;;;4.10;;
26622;SDS011;14254;50.968;5.366;2023-05-10T14:48:02;4.70;;;4.30;;
26622;SDS011;14254;50.968;5.366;2023-05-10T14:50:29;4.65;;;4.25;;
26622;SDS011;14254;50.968;5.366;2023-05-10T14:52:56;5.90;;;4.10;;
26622;SDS011;14254;50.968;5.366;2023-05-10T14:55:22;5.05;;;4.55;;
26622;SDS011;14254;50.968;5.366;2023-05-10T14:57:48;5.25;;;3.85;;
26622;SDS011;14254;50.968;5.366;2023-05-10T15:00:15;6.40;;;3.58;;
26622;SDS011;14254;50.968;5.366;2023-05-10T15:02:41;4.57;;;4.18;;
26622;SDS011;14254;50.968;5.366;2023-05-10T15:05:07;5.18;;;3.28;;